Time;durP1;ratioP1;P1;durP2;ratioP2;P2;SDS_P1;SDS_P2;PMS_P1;PMS_P2;Temp;Humidity;BMP_temperature;BMP_pressure;BME280_temperature;BME280_humidity;BME280_pressure;Samples;Min_cycle;Max_cycle;Signal;HPM_P1;HPM_P2
2021/08/07 00:00:46;;;;;;;1.20;1.10;;;;;;;12.18;81.61;95246.20;1787014;80;21500;-59
2021/08/07 00:03:15;;;;;;;1.30;1.20;;;;;;;12.28;81.46;95245.87;1786865;80;21026;-59
2021/08/07 00:05:43;;;;;;;1.35;1.17;;;;;;;12.26;81.17;95251.66;1787203;80;21472;-59
2021/08/07 00:08:10;;;;;;;3.15;1.27;;;;;;;12.19;81.16;95250.56;1787036;80;21050;-58
2021/08/07 00:10:37;;;;;;;2.17;1.50;;;;;;;12.11;81.11;95247.69;1787277;80;21556;-58
2021/08/07 00:13:04;;;;;;;1.40;1.30;;;;;;;12.04;82.05;95253.21;1786789;80;21053;-59
2021/08/07 00:15:31;;;;;;;1.52;1.15;;;;;;;11.99;81.40;95260.42;1787020;80;21520;-58
2021/08/07 00:17:58;;;;;;;3.02;1.52;;;;;;;11.89;81.91;95265.10;1787294;80;21010;-59
2021/08/07 00:20:25;;;;;;;1.32;1.20;;;;;;;11.88;81.87;95267.34;1787184;80;21544;-59
2021/08/07 00:22:52;;;;;;;1.90;1.27;;;;;;;11.80;81.68;95271.97;1786712;80;20991;-59
2021/08/07 00:25:19;;;;;;;3.75;1.27;;;;;;;11.73;81.50;95271.72;1786872;80;21058;-58
2021/08/07 00:27:45;;;;;;;1.57;1.40;;;;;;;11.70;81.67;95275.31;1787094;80;20975;-59
2021/08/07 00:30:13;;;;;;;2.67;1.50;;;;;;;11.67;82.63;95278.05;1787024;80;21453;-58
2021/08/07 00:32:40;;;;;;;2.37;1.60;;;;;;;11.62;82.18;95279.95;1787254;80;21520;-59
2021/08/07 00:35:09;;;;;;;2.77;1.80;;;;;;;11.61;82.66;95279.52;1787230;80;21003;-59
2021/08/07 00:37:36;;;;;;;1.22;1.10;;;;;;;11.61;82.75;95280.84;1786874;80;21484;-59
2021/08/07 00:40:07;;;;;;;1.40;1.30;;;;;;;11.56;82.81;95280.97;1787358;80;20983;-58
2021/08/07 00:42:34;;;;;;;1.63;1.37;;;;;;;11.52;82.53;95281.13;1786931;80;20978;-60
2021/08/07 00:45:04;;;;;;;2.75;1.27;;;;;;;11.48;82.46;95287.78;1785665;80;21015;-59
2021/08/07 00:47:31;;;;;;;2.57;1.70;;;;;;;11.41;83.43;95284.89;1787137;80;20995;-59
2021/08/07 00:50:00;;;;;;;2.90;1.30;;;;;;;11.39;83.43;95284.09;1787026;80;21046;-59
2021/08/07 00:52:29;;;;;;;1.40;1.30;;;;;;;11.43;82.84;95288.82;1780125;80;21536;-58
2021/08/07 00:54:56;;;;;;;3.37;1.40;;;;;;;11.42;83.07;95291.06;1787100;80;20991;-58
2021/08/07 00:57:26;;;;;;;1.50;1.40;;;;;;;11.41;82.82;95292.81;1786806;80;21023;-58
2021/08/07 00:59:54;;;;;;;2.12;1.50;;;;;;;11.46;83.11;95290.95;1786960;80;20979;-58
2021/08/07 01:02:23;;;;;;;1.50;1.40;;;;;;;11.48;82.94;95293.53;1787130;80;21082;-58
2021/08/07 01:05:20;;;;;;;1.30;1.20;;;;;;;11.52;82.79;95293.88;1786587;80;21029;-58
2021/08/07 01:08:02;;;;;;;1.22;1.12;;;;;;;11.56;82.84;95291.53;1787027;80;20971;-58
2021/08/07 01:10:50;;;;;;;1.22;1.12;;;;;;;11.59;82.95;95291.48;1786798;80;21053;-59
2021/08/07 01:13:34;;;;;;;5.47;1.40;;;;;;;11.67;82.30;95296.09;1790361;80;21055;-58
2021/08/07 01:16:13;;;;;;;3.60;1.37;;;;;;;11.58;81.85;95288.86;1795423;80;20983;-59
2021/08/07 01:18:41;;;;;;;1.30;1.20;;;;;;;11.68;82.53;95295.16;1795253;80;21003;-58
2021/08/07 01:21:11;;;;;;;2.27;1.50;;;;;;;11.74;82.44;95297.23;1795337;80;21026;-59
2021/08/07 01:23:49;;;;;;;1.40;1.30;;;;;;;11.68;81.94;95296.95;1794610;80;21580;-58
2021/08/07 01:26:50;;;;;;;1.20;1.10;;;;;;;11.65;81.46;95297.91;1795410;80;20979;-58
2021/08/07 01:29:20;;;;;;;2.15;1.15;;;;;;;11.68;81.48;95297.81;1795514;80;21023;-59
2021/08/07 01:31:50;;;;;;;1.33;1.23;;;;;;;11.68;81.79;95295.63;1794669;80;20975;-59
2021/08/07 01:34:20;;;;;;;1.60;1.50;;;;;;;11.62;81.89;95288.74;1795223;80;21444;-58
2021/08/07 01:36:48;;;;;;;4.53;1.50;;;;;;;11.61;81.84;95297.56;1795298;80;21538;-58
2021/08/07 01:39:17;;;;;;;4.75;1.70;;;;;;;11.69;81.93;95306.17;1794434;80;20975;-58
2021/08/07 01:41:45;;;;;;;2.60;1.60;;;;;;;11.74;81.94;95298.55;1795673;80;21021;-59
2021/08/07 01:44:13;;;;;;;1.70;1.55;;;;;;;11.68;81.70;95297.81;1790090;80;21070;-59
2021/08/07 01:47:00;;;;;;;2.02;1.30;;;;;;;11.66;81.46;95302.27;1795234;80;21508;-59
2021/08/07 01:49:55;;;;;;;2.53;1.57;;;;;;;11.70;81.07;95303.06;1794869;80;20998;-59
2021/08/07 01:52:28;;;;;;;1.47;1.37;;;;;;;11.50;80.93;95304.06;1795966;80;21049;-59
2021/08/07 01:55:15;;;;;;;2.27;1.30;;;;;;;11.47;82.25;95305.02;1794931;80;20959;-58
2021/08/07 01:57:52;;;;;;;1.50;1.30;;;;;;;11.43;82.29;95307.31;1795372;80;21022;-59
2021/08/07 02:00:21;;;;;;;4.53;1.13;;;;;;;11.45;82.60;95302.86;1789125;80;21061;-59
2021/08/07 02:02:52;;;;;;;3.10;1.27;;;;;;;11.39;82.53;95303.91;1795390;80;21038;-59
2021/08/07 02:05:21;;;;;;;3.30;1.27;;;;;;;11.34;82.18;95310.19;1794678;80;21010;-58
2021/08/07 02:07:52;;;;;;;2.37;1.33;;;;;;;11.31;82.38;95308.95;1795170;80;21516;-58
2021/08/07 02:10:20;;;;;;;2.42;1.42;;;;;;;11.21;82.95;95305.25;1764317;80;20990;-59
2021/08/07 02:12:48;;;;;;;1.43;1.20;;;;;;;11.13;83.30;95308.52;1794499;80;21010;-59
2021/08/07 02:15:20;;;;;;;1.50;1.30;;;;;;;11.04;83.09;95310.09;1786951;80;21066;-58
2021/08/07 02:17:50;;;;;;;1.50;1.40;;;;;;;10.98;82.96;95311.08;1779984;80;21488;-59
2021/08/07 02:20:18;;;;;;;1.57;1.40;;;;;;;10.94;82.99;95313.41;1787063;80;21058;-59
2021/08/07 02:22:49;;;;;;;1.97;1.40;;;;;;;10.88;82.95;95310.03;1786846;80;21105;-58
2021/08/07 02:25:17;;;;;;;1.77;1.60;;;;;;;10.86;82.96;95306.13;1754184;80;21010;-58
2021/08/07 02:27:55;;;;;;;1.43;1.33;;;;;;;10.91;83.25;95312.59;1784297;80;20994;-59
2021/08/07 02:30:25;;;;;;;1.93;1.60;;;;;;;10.88;83.97;95304.30;1786828;80;21057;-58
2021/08/07 02:32:53;;;;;;;8.70;1.60;;;;;;;10.87;83.41;95310.95;1787290;80;21015;-58
2021/08/07 02:35:22;;;;;;;2.00;1.80;;;;;;;10.87;83.33;95305.67;1787215;80;21014;-59
2021/08/07 02:37:51;;;;;;;1.77;1.57;;;;;;;10.92;83.62;95308.61;1754299;80;20940;-58
2021/08/07 02:40:19;;;;;;;1.60;1.50;;;;;;;10.95;84.12;95314.27;1787216;80;21474;-59
2021/08/07 02:42:48;;;;;;;3.37;2.00;;;;;;;10.90;84.01;95314.37;1786489;80;20968;-58
2021/08/07 02:45:15;;;;;;;4.23;2.00;;;;;;;10.98;83.98;95319.46;1787116;80;21532;-59
2021/08/07 02:47:45;;;;;;;2.67;1.60;;;;;;;11.00;83.73;95321.62;1779641;80;21015;-59
2021/08/07 02:50:12;;;;;;;1.20;1.10;;;;;;;10.99;83.19;95321.22;1786959;80;20976;-58
2021/08/07 02:52:39;;;;;;;1.53;1.43;;;;;;;10.99;83.22;95312.84;1787022;80;20991;-58
2021/08/07 02:55:09;;;;;;;1.63;1.53;;;;;;;10.95;83.11;95313.80;1787130;80;21023;-58
2021/08/07 02:57:36;;;;;;;2.93;1.63;;;;;;;10.92;82.45;95314.34;1787277;80;21484;-58
2021/08/07 03:00:04;;;;;;;1.43;1.33;;;;;;;10.86;82.72;95318.44;1787501;80;20990;-58
2021/08/07 03:02:31;;;;;;;1.80;1.50;;;;;;;10.89;83.28;95315.29;1780216;80;21066;-59
2021/08/07 03:04:58;;;;;;;3.40;1.50;;;;;;;10.99;83.68;95314.16;1787039;80;21461;-58
2021/08/07 03:07:25;;;;;;;2.43;1.40;;;;;;;11.01;83.50;95308.39;1787311;80;21023;-58
2021/08/07 03:09:52;;;;;;;1.37;1.27;;;;;;;11.02;82.45;95310.57;1787222;80;21030;-59
2021/08/07 03:12:19;;;;;;;2.30;1.60;;;;;;;10.95;82.32;95311.63;1787193;80;21481;-58
2021/08/07 03:14:46;;;;;;;1.60;1.33;;;;;;;10.81;82.46;95310.20;1787088;80;21036;-58
2021/08/07 03:17:12;;;;;;;1.60;1.50;;;;;;;10.79;82.58;95315.09;1787284;80;21050;-58
2021/08/07 03:19:41;;;;;;;1.60;1.50;;;;;;;10.77;82.41;95318.22;1787158;80;21058;-58
2021/08/07 03:22:08;;;;;;;2.70;1.70;;;;;;;10.86;82.76;95318.44;1787132;80;20995;-58
2021/08/07 03:24:36;;;;;;;1.50;1.40;;;;;;;10.88;82.54;95318.81;1787018;80;21007;-58
2021/08/07 03:27:03;;;;;;;1.47;1.30;;;;;;;10.92;82.63;95327.55;1787127;80;21501;-58
2021/08/07 03:29:29;;;;;;;1.70;1.40;;;;;;;10.87;82.21;95316.23;1787451;80;21007;-58
2021/08/07 03:31:58;;;;;;;3.73;1.60;;;;;;;10.85;82.63;95322.85;1786602;80;20951;-58
2021/08/07 03:34:26;;;;;;;5.20;2.13;;;;;;;10.93;83.09;95323.98;1785052;80;21067;-58
2021/08/07 03:36:53;;;;;;;1.40;1.23;;;;;;;10.98;83.25;95323.42;1787123;80;21026;-60
2021/08/07 03:39:20;;;;;;;5.03;1.83;;;;;;;11.02;82.93;95327.27;1754395;80;20995;-58
2021/08/07 03:41:48;;;;;;;1.43;1.33;;;;;;;10.94;83.19;95331.88;1787065;80;21079;-58
2021/08/07 03:44:16;;;;;;;1.57;1.47;;;;;;;10.92;83.09;95327.55;1787159;80;21011;-58
2021/08/07 03:46:42;;;;;;;1.50;1.40;;;;;;;10.94;83.36;95334.98;1786705;80;21054;-58
2021/08/07 03:49:09;;;;;;;1.70;1.60;;;;;;;11.03;83.55;95330.77;1787232;80;21007;-58
2021/08/07 03:51:37;;;;;;;2.47;1.63;;;;;;;11.15;83.40;95335.76;1780385;80;21046;-58
2021/08/07 03:54:04;;;;;;;3.03;1.60;;;;;;;11.29;82.87;95343.78;1786894;80;20972;-58
2021/08/07 03:56:31;;;;;;;1.53;1.43;;;;;;;11.23;81.87;95341.70;1787208;80;21006;-59
2021/08/07 03:58:59;;;;;;;1.90;1.40;;;;;;;11.12;81.42;95346.41;1787116;80;21007;-58
2021/08/07 04:01:27;;;;;;;2.50;1.30;;;;;;;11.06;81.90;95349.17;1787145;80;21468;-58
2021/08/07 04:03:55;;;;;;;2.37;1.80;;;;;;;11.00;82.79;95346.23;1754439;80;20999;-58
2021/08/07 04:06:22;;;;;;;2.43;1.50;;;;;;;11.12;83.27;95343.77;1787300;80;21093;-58
2021/08/07 04:08:49;;;;;;;2.30;1.37;;;;;;;11.22;83.31;95356.28;1787122;80;20999;-58
2021/08/07 04:11:16;;;;;;;2.20;1.60;;;;;;;11.26;83.34;95357.50;1787349;80;20983;-59
2021/08/07 04:13:44;;;;;;;1.80;1.70;;;;;;;11.40;83.55;95354.95;1787137;80;21026;-58
2021/08/07 04:16:12;;;;;;;3.42;1.57;;;;;;;11.50;83.56;95353.81;1795235;80;21046;-59
2021/08/07 04:18:38;;;;;;;2.00;1.63;;;;;;;11.61;83.82;95356.16;1795417;80;20999;-58
2021/08/07 04:21:06;;;;;;;4.22;1.80;;;;;;;11.74;83.67;95356.23;1795353;80;21536;-58
2021/08/07 04:23:33;;;;;;;1.70;1.50;;;;;;;11.84;83.09;95353.78;1795012;80;20986;-58
2021/08/07 04:26:00;;;;;;;2.45;1.35;;;;;;;11.84;82.78;95356.43;1795431;80;21057;-58
2021/08/07 04:28:27;;;;;;;1.57;1.47;;;;;;;11.83;83.13;95352.03;1795394;80;21002;-58
2021/08/07 04:30:54;;;;;;;1.90;1.50;;;;;;;11.85;83.35;95350.22;1795310;80;21002;-58
2021/08/07 04:33:20;;;;;;;2.25;1.57;;;;;;;11.88;83.37;95353.27;1795195;80;21149;-59
2021/08/07 04:35:47;;;;;;;2.12;1.60;;;;;;;11.94;83.77;95355.73;1795235;80;21011;-58
2021/08/07 04:38:19;;;;;;;2.02;1.92;;;;;;;12.01;83.76;95352.47;1794770;80;21449;-59
2021/08/07 04:40:48;;;;;;;2.92;2.20;;;;;;;12.16;83.58;95342.78;1795168;80;21010;-58
2021/08/07 04:43:17;;;;;;;1.93;1.80;;;;;;;12.31;83.46;95346.30;1794808;80;21536;-59
2021/08/07 04:45:43;;;;;;;1.87;1.77;;;;;;;12.38;83.27;95341.70;1764969;80;21010;-59
2021/08/07 04:48:10;;;;;;;4.75;1.80;;;;;;;12.43;83.22;95338.92;1795342;80;21042;-60
2021/08/07 04:50:39;;;;;;;2.35;2.15;;;;;;;12.49;83.21;95336.94;1794859;80;21079;-59
2021/08/07 04:53:06;;;;;;;3.52;2.60;;;;;;;12.59;82.75;95333.56;1795503;80;20983;-58
2021/08/07 04:55:35;;;;;;;3.72;2.50;;;;;;;12.69;82.55;95331.50;1795402;80;21034;-59
2021/08/07 04:58:04;;;;;;;5.00;3.50;;;;;;;12.81;81.98;95331.13;1795517;80;21018;-58
2021/08/07 05:00:31;;;;;;;5.22;3.33;;;;;;;12.91;81.70;95339.65;1795362;80;20994;-58
2021/08/07 05:02:57;;;;;;;4.17;2.80;;;;;;;13.06;81.78;95333.86;1795406;80;20999;-59
2021/08/07 05:05:24;;;;;;;4.30;2.77;;;;;;;13.20;81.56;95338.69;1795376;80;21468;-58
2021/08/07 05:07:52;;;;;;;2.60;1.87;;;;;;;13.40;81.53;95343.36;1795429;80;20994;-58
2021/08/07 05:10:20;;;;;;;2.05;1.85;;;;;;;13.49;80.68;95339.55;1795585;80;21010;-59
2021/08/07 05:12:47;;;;;;;2.40;2.20;;;;;;;13.66;81.19;95333.21;1795559;80;21022;-59
2021/08/07 05:15:14;;;;;;;2.37;2.10;;;;;;;13.85;81.07;95335.59;1789403;80;21023;-58
2021/08/07 05:17:42;;;;;;;2.10;1.90;;;;;;;14.04;81.08;95336.29;1787006;80;21034;-59
2021/08/07 05:20:10;;;;;;;3.45;2.25;;;;;;;14.23;80.91;95325.85;1786831;80;21019;-58
2021/08/07 05:22:37;;;;;;;2.72;2.22;;;;;;;14.37;79.92;95334.64;1787036;80;20978;-59
2021/08/07 05:25:07;;;;;;;3.22;2.17;;;;;;;14.49;80.16;95336.84;1786695;80;21512;-59
2021/08/07 05:27:34;;;;;;;3.15;2.47;;;;;;;14.65;79.65;95342.45;1787098;80;20995;-59
2021/08/07 05:30:04;;;;;;;3.75;2.50;;;;;;;14.79;79.72;95340.57;1787101;80;21568;-59
2021/08/07 05:32:31;;;;;;;4.50;3.00;;;;;;;14.95;79.59;95343.52;1786955;80;21492;-59
2021/08/07 05:34:58;;;;;;;4.40;2.83;;;;;;;15.08;79.04;95345.60;1787078;80;20959;-59
2021/08/07 05:37:25;;;;;;;7.20;3.70;;;;;;;15.23;78.64;95342.79;1786948;80;21010;-59
2021/08/07 05:39:52;;;;;;;3.62;2.98;;;;;;;15.31;78.29;95343.80;1786901;80;21449;-59
2021/08/07 05:42:19;;;;;;;5.50;3.27;;;;;;;15.36;77.41;95346.67;1786861;80;21065;-59
2021/08/07 05:44:45;;;;;;;5.03;3.15;;;;;;;15.44;77.92;95346.81;1787074;80;20983;-59
2021/08/07 05:47:12;;;;;;;3.10;2.42;;;;;;;15.59;78.11;95347.50;1787040;80;20996;-59
2021/08/07 05:49:39;;;;;;;2.70;2.50;;;;;;;15.74;77.70;95346.02;1787018;80;21118;-59
2021/08/07 05:52:07;;;;;;;3.77;2.15;;;;;;;15.90;77.78;95348.88;1786717;80;20996;-59
2021/08/07 05:54:33;;;;;;;3.35;2.77;;;;;;;16.04;77.57;95349.16;1787083;80;21484;-59
2021/08/07 05:57:00;;;;;;;2.95;2.65;;;;;;;16.20;76.83;95350.66;1787151;80;21029;-59
2021/08/07 05:59:27;;;;;;;3.58;2.40;;;;;;;16.29;76.26;95357.39;1787081;80;20986;-59
2021/08/07 06:01:54;;;;;;;2.75;2.20;;;;;;;16.40;76.11;95353.77;1787075;80;20991;-59
2021/08/07 06:04:21;;;;;;;2.33;2.10;;;;;;;16.48;75.27;95351.64;1787164;80;21516;-59
2021/08/07 06:06:48;;;;;;;3.15;2.02;;;;;;;16.56;73.97;95353.95;1786981;80;20971;-59
2021/08/07 06:09:15;;;;;;;7.08;2.40;;;;;;;16.64;73.80;95351.31;1754151;80;20986;-59
2021/08/07 06:11:41;;;;;;;2.95;2.12;;;;;;;16.73;73.05;95357.14;1786980;80;21106;-59
2021/08/07 06:14:08;;;;;;;2.15;2.00;;;;;;;16.83;73.08;95353.14;1786784;80;21011;-58
2021/08/07 06:16:35;;;;;;;4.58;2.40;;;;;;;16.99;74.06;95354.64;1787027;80;20999;-59
2021/08/07 06:19:03;;;;;;;4.55;1.90;;;;;;;17.14;74.21;95352.58;1787115;80;20995;-59
2021/08/07 06:21:30;;;;;;;2.70;2.00;;;;;;;17.26;73.76;95349.76;1786779;80;21520;-59
2021/08/07 06:23:58;;;;;;;3.15;2.10;;;;;;;17.39;73.52;95356.72;1787023;80;20940;-59
2021/08/07 06:26:29;;;;;;;3.58;1.90;;;;;;;17.50;72.84;95365.90;1786663;80;21007;-59
2021/08/07 06:28:57;;;;;;;4.40;2.37;;;;;;;17.68;73.50;95367.27;1787049;80;21010;-59
2021/08/07 06:31:23;;;;;;;2.27;2.08;;;;;;;17.85;73.26;95370.45;1786724;80;21050;-59
2021/08/07 06:33:50;;;;;;;2.25;1.20;;;;;;;17.99;72.48;95369.26;1787157;80;21018;-59
2021/08/07 06:36:18;;;;;;;4.08;1.77;;;;;;;18.17;67.49;95371.48;1787099;80;21496;-59
2021/08/07 06:38:45;;;;;;;3.25;1.80;;;;;;;18.38;69.33;95370.81;1786975;80;21011;-59
2021/08/07 06:41:12;;;;;;;2.67;1.80;;;;;;;18.58;69.46;95373.77;1754252;80;21062;-59
2021/08/07 06:43:40;;;;;;;3.02;1.30;;;;;;;18.77;68.18;95373.66;1782766;80;21055;-59
2021/08/07 06:46:20;;;;;;;1.70;1.40;;;;;;;18.94;62.66;95378.94;1784530;80;21025;-59
2021/08/07 06:48:47;;;;;;;1.50;1.40;;;;;;;19.10;63.01;95386.11;1786642;80;20963;-59
2021/08/07 06:51:14;;;;;;;3.85;1.45;;;;;;;19.26;61.79;95377.64;1786995;80;20971;-59
2021/08/07 06:53:41;;;;;;;2.37;1.60;;;;;;;19.38;60.19;95385.46;1786880;80;21074;-59
2021/08/07 06:56:09;;;;;;;2.27;1.50;;;;;;;19.46;58.50;95389.41;1786692;80;20991;-59
2021/08/07 06:58:35;;;;;;;1.37;1.27;;;;;;;19.60;60.60;95385.08;1787146;80;20983;-59
2021/08/07 07:01:02;;;;;;;2.27;1.47;;;;;;;19.77;62.07;95398.38;1786991;80;21058;-59
2021/08/07 07:03:29;;;;;;;2.30;1.77;;;;;;;19.85;56.98;95393.44;1787209;80;21030;-59
2021/08/07 07:05:56;;;;;;;1.47;1.37;;;;;;;19.82;56.54;95395.45;1787029;80;20977;-59
2021/08/07 07:08:23;;;;;;;2.17;1.60;;;;;;;19.85;56.35;95409.50;1786968;80;21003;-59
2021/08/07 07:10:50;;;;;;;1.72;1.50;;;;;;;19.98;59.14;95403.44;1786821;80;21074;-59
2021/08/07 07:13:18;;;;;;;1.60;1.50;;;;;;;20.05;56.30;95403.47;1754932;80;20995;-59
2021/08/07 07:15:44;;;;;;;1.65;1.47;;;;;;;20.16;57.91;95411.75;1786882;80;21058;-59
2021/08/07 07:18:11;;;;;;;1.75;1.65;;;;;;;20.31;58.14;95409.97;1787010;80;21049;-59
2021/08/07 07:20:39;;;;;;;1.50;1.40;;;;;;;20.36;55.24;95413.69;1787164;80;21082;-59
2021/08/07 07:23:06;;;;;;;3.02;1.60;;;;;;;20.40;56.09;95404.53;1786826;80;21025;-59
2021/08/07 07:25:33;;;;;;;3.35;1.50;;;;;;;20.55;56.94;95406.79;1786967;80;21087;-59
2021/08/07 07:28:01;;;;;;;1.60;1.50;;;;;;;20.69;58.02;95406.81;1786888;80;21046;-59
2021/08/07 07:30:30;;;;;;;1.80;1.70;;;;;;;20.80;54.05;95414.19;1786989;80;21489;-59
2021/08/07 07:32:57;;;;;;;1.72;1.60;;;;;;;20.81;55.83;95415.41;1787237;80;21006;-59
2021/08/07 07:35:24;;;;;;;1.50;1.40;;;;;;;20.96;56.71;95409.58;1787284;80;21469;-59
2021/08/07 07:37:51;;;;;;;1.80;1.40;;;;;;;21.02;55.15;95411.90;1754294;80;21885;-59
2021/08/07 07:40:19;;;;;;;2.40;1.55;;;;;;;21.11;55.51;95405.94;1787228;80;20971;-59
2021/08/07 07:42:48;;;;;;;1.60;1.50;;;;;;;21.23;54.76;95411.50;1787184;80;21027;-59
2021/08/07 07:45:15;;;;;;;1.82;1.40;;;;;;;21.36;55.59;95403.04;1787227;80;20991;-59
2021/08/07 07:47:43;;;;;;;3.42;1.52;;;;;;;21.32;54.51;95406.89;1787470;80;21058;-59
2021/08/07 07:50:12;;;;;;;1.70;1.60;;;;;;;21.41;54.02;95412.17;1787036;80;21038;-59
2021/08/07 07:52:40;;;;;;;2.77;1.45;;;;;;;21.52;54.63;95417.70;1787004;80;21002;-59
2021/08/07 07:55:09;;;;;;;1.98;1.45;;;;;;;21.60;53.82;95411.38;1787224;80;20987;-59
2021/08/07 07:57:37;;;;;;;1.98;1.50;;;;;;;21.75;53.10;95420.26;1786530;80;20979;-59
2021/08/07 08:00:06;;;;;;;1.50;1.10;;;;;;;21.66;51.24;95419.02;1787362;80;20994;-59
2021/08/07 08:02:35;;;;;;;1.70;1.60;;;;;;;21.38;50.65;95418.11;1784307;80;21054;-59
2021/08/07 08:05:02;;;;;;;1.92;1.52;;;;;;;21.25;52.52;95414.47;1787204;80;20999;-59
2021/08/07 08:07:29;;;;;;;1.62;1.52;;;;;;;21.31;53.36;95414.55;1787129;80;20979;-59
2021/08/07 08:09:56;;;;;;;1.55;1.32;;;;;;;21.44;52.51;95418.68;1787070;80;20979;-59
2021/08/07 08:12:22;;;;;;;1.60;1.50;;;;;;;21.62;52.44;95417.52;1786986;80;21523;-59
2021/08/07 08:14:49;;;;;;;1.57;1.47;;;;;;;21.59;54.51;95423.91;1788367;80;21113;-59
2021/08/07 08:17:16;;;;;;;2.25;1.42;;;;;;;21.48;53.56;95425.09;1795457;80;21014;-59
2021/08/07 08:19:43;;;;;;;1.42;1.32;;;;;;;21.69;55.18;95423.33;1795450;80;20986;-59
2021/08/07 08:22:11;;;;;;;1.87;1.35;;;;;;;21.75;54.64;95433.69;1795734;80;21030;-59
2021/08/07 08:24:37;;;;;;;2.25;1.57;;;;;;;21.80;53.96;95433.75;1795563;80;21030;-59
2021/08/07 08:27:05;;;;;;;6.92;3.62;;;;;;;22.12;56.20;95421.34;1795457;80;20998;-59
2021/08/07 08:29:32;;;;;;;3.45;2.33;;;;;;;22.43;53.13;95412.60;1795511;80;20962;-59
2021/08/07 08:31:59;;;;;;;5.37;2.00;;;;;;;22.59;51.81;95411.06;1795439;80;21006;-59
2021/08/07 08:34:26;;;;;;;1.75;1.50;;;;;;;22.44;52.57;95420.55;1795182;80;21015;-59
2021/08/07 08:36:52;;;;;;;2.72;1.62;;;;;;;22.17;52.18;95419.69;1795365;80;20987;-59
2021/08/07 08:39:19;;;;;;;2.95;1.50;;;;;;;22.27;52.88;95421.31;1795407;80;20951;-59
2021/08/07 08:41:46;;;;;;;2.22;1.55;;;;;;;22.50;52.04;95420.60;1795426;80;21069;-59
2021/08/07 08:44:13;;;;;;;1.22;1.12;;;;;;;22.82;52.66;95430.48;1795385;80;21067;-59
2021/08/07 08:46:42;;;;;;;1.57;1.30;;;;;;;23.05;49.80;95422.17;1795523;80;21007;-59
2021/08/07 08:49:11;;;;;;;1.40;1.30;;;;;;;23.22;49.03;95418.78;1795500;80;21018;-59
2021/08/07 08:51:39;;;;;;;1.72;1.40;;;;;;;23.50;49.78;95431.11;1795536;80;21523;-59
2021/08/07 08:54:06;;;;;;;1.50;1.32;;;;;;;23.49;45.73;95432.95;1795151;80;21010;-59
2021/08/07 08:56:34;;;;;;;3.72;1.70;;;;;;;23.25;47.57;95430.17;1795247;80;21007;-59
2021/08/07 08:59:05;;;;;;;1.77;1.25;;;;;;;23.32;47.20;95430.12;1795440;80;21095;-59
2021/08/07 09:01:33;;;;;;;2.40;1.40;;;;;;;23.61;49.57;95431.21;1795326;80;21543;-60
2021/08/07 09:04:01;;;;;;;1.87;1.40;;;;;;;23.89;49.62;95430.53;1795483;80;21018;-61
2021/08/07 09:06:28;;;;;;;1.27;1.17;;;;;;;24.10;47.16;95434.34;1795499;80;21005;-61
2021/08/07 09:09:11;;;;;;;1.42;1.32;;;;;;;24.36;48.44;95428.32;1795259;80;21010;-60
2021/08/07 09:11:50;;;;;;;5.12;1.42;;;;;;;24.62;45.67;95429.58;1795444;80;21018;-60
2021/08/07 09:14:28;;;;;;;2.10;1.35;;;;;;;24.49;46.98;95426.08;1795590;80;20991;-61
2021/08/07 09:17:04;;;;;;;6.92;1.50;;;;;;;24.31;47.36;95429.16;1787161;80;21046;-61
2021/08/07 09:19:46;;;;;;;1.30;1.20;;;;;;;24.16;47.58;95433.87;1754304;80;20985;-61
2021/08/07 09:22:21;;;;;;;;;;;;;;;23.94;45.84;95432.43;1790024;80;21030;-60
2021/08/07 09:25:03;;;;;;;2.70;1.20;;;;;;;23.81;48.34;95436.98;1755856;82;20101;-61
2021/08/07 09:27:46;;;;;;;1.67;1.20;;;;;;;23.74;46.53;95425.32;1742404;82;21058;-61
2021/08/07 09:30:25;;;;;;;3.08;1.60;;;;;;;23.49;49.09;95430.75;1787152;80;21051;-61
2021/08/07 09:33:03;;;;;;;5.37;1.40;;;;;;;23.28;48.73;95439.86;1786935;80;21011;-61
2021/08/07 09:35:40;;;;;;;4.03;1.50;;;;;;;23.49;49.27;95431.60;1787104;80;21011;-58
2021/08/07 09:38:19;;;;;;;3.77;1.50;;;;;;;23.52;49.05;95439.45;1786867;80;21011;-58
2021/08/07 09:41:00;;;;;;;3.10;1.40;;;;;;;23.47;49.53;95437.58;1786940;80;21042;-58
2021/08/07 09:43:48;;;;;;;2.85;1.35;;;;;;;23.54;49.44;95444.25;1787005;80;20999;-58
2021/08/07 09:46:24;;;;;;;1.50;1.40;;;;;;;23.74;51.00;95438.80;1787046;80;20963;-58
2021/08/07 09:49:05;;;;;;;1.40;1.30;;;;;;;24.09;46.85;95447.46;1787303;80;21469;-58
2021/08/07 09:51:38;;;;;;;1.20;1.10;;;;;;;23.92;45.75;95446.00;1787135;80;21457;-58
2021/08/07 09:54:16;;;;;;;2.45;1.40;;;;;;;23.75;45.82;95449.08;1787164;80;21026;-58
2021/08/07 09:56:58;;;;;;;1.70;1.60;;;;;;;23.41;46.95;95444.77;1787165;80;21509;-58
2021/08/07 09:59:30;;;;;;;2.35;1.40;;;;;;;23.70;49.08;95448.52;1787041;80;21027;-58
2021/08/07 10:01:58;;;;;;;5.45;1.40;;;;;;;24.17;48.92;95446.39;1787017;80;21021;-58
2021/08/07 10:04:42;;;;;;;2.55;1.35;;;;;;;24.49;46.94;95444.45;1786344;80;21055;-58
2021/08/07 10:07:11;;;;;;;1.77;1.20;;;;;;;24.66;44.28;95444.52;1786660;80;21038;-58
2021/08/07 10:09:40;;;;;;;2.00;1.20;;;;;;;24.84;43.47;95444.94;1785155;80;21485;-59
2021/08/07 10:12:11;;;;;;;2.25;1.50;;;;;;;25.00;43.07;95443.28;1786348;80;20995;-58
2021/08/07 10:14:42;;;;;;;1.52;1.40;;;;;;;25.32;44.05;95442.09;1786750;80;21058;-58
2021/08/07 10:17:12;;;;;;;1.92;1.60;;;;;;;25.55;43.63;95436.22;1794244;80;21017;-58
2021/08/07 10:19:41;;;;;;;2.52;1.85;;;;;;;25.81;44.48;95444.91;1795204;80;21007;-59
2021/08/07 10:22:12;;;;;;;1.30;1.20;;;;;;;25.99;43.19;95443.92;1795482;80;20995;-59
2021/08/07 10:24:45;;;;;;;2.02;1.52;;;;;;;25.98;42.42;95450.80;1793835;80;21046;-59
2021/08/07 10:27:17;;;;;;;1.50;1.40;;;;;;;26.05;43.97;95456.06;1795461;80;21030;-59
2021/08/07 10:29:47;;;;;;;1.47;1.37;;;;;;;26.18;42.80;95452.70;1795495;80;21007;-59
2021/08/07 10:32:16;;;;;;;1.55;1.20;;;;;;;26.36;41.94;95465.69;1795308;80;21006;-59
2021/08/07 10:34:50;;;;;;;1.00;1.00;;;;;;;26.39;36.87;95468.16;1795581;80;21445;-58
2021/08/07 10:37:18;;;;;;;2.65;1.37;;;;;;;26.59;38.71;95462.47;1795496;80;21449;-58
2021/08/07 10:39:45;;;;;;;2.92;1.10;;;;;;;26.74;36.20;95457.95;1794787;80;21015;-58
2021/08/07 10:42:16;;;;;;;1.22;1.10;;;;;;;26.86;39.10;95456.53;1795316;80;21045;-58
2021/08/07 10:44:45;;;;;;;1.57;1.40;;;;;;;27.05;39.94;95455.31;1795637;80;21011;-58
2021/08/07 10:47:13;;;;;;;2.77;1.50;;;;;;;27.14;40.57;95459.06;1795486;80;21038;-58
2021/08/07 10:49:46;;;;;;;1.32;1.22;;;;;;;27.15;36.97;95448.61;1795653;80;21499;-58
2021/08/07 10:52:28;;;;;;;2.25;1.50;;;;;;;27.07;37.83;95450.63;1795623;80;21042;-58
2021/08/07 10:54:56;;;;;;;1.77;1.42;;;;;;;27.09;40.45;95440.53;1794090;80;21010;-58
2021/08/07 10:57:39;;;;;;;1.98;1.50;;;;;;;27.35;41.15;95446.41;1795782;80;21049;-58
2021/08/07 11:00:24;;;;;;;1.60;1.50;;;;;;;27.46;39.65;95441.38;1795318;80;21010;-59
2021/08/07 11:03:13;;;;;;;2.95;1.65;;;;;;;27.52;41.33;95440.86;1795569;80;21504;-58
2021/08/07 11:05:51;;;;;;;2.00;1.70;;;;;;;27.62;39.72;95443.61;1795654;80;21014;-58
2021/08/07 11:08:19;;;;;;;1.40;1.30;;;;;;;27.62;37.67;95444.97;1795446;80;21041;-58
2021/08/07 11:10:47;;;;;;;1.62;1.47;;;;;;;27.68;38.45;95446.27;1795518;80;21022;-58
2021/08/07 11:13:27;;;;;;;1.60;1.40;;;;;;;27.65;37.95;95446.55;1795599;80;21524;-59
2021/08/07 11:16:18;;;;;;;1.55;1.20;;;;;;;27.70;35.70;95440.22;1795277;80;21054;-59
2021/08/07 11:18:47;;;;;;;2.05;1.40;;;;;;;27.82;36.06;95435.06;1795560;80;20968;-59
2021/08/07 11:21:51;;;;;;;1.60;1.50;;;;;;;28.09;36.95;95440.35;1795222;80;20994;-59
2021/08/07 11:24:55;;;;;;;1.62;1.20;;;;;;;28.25;37.79;95437.47;1795613;80;21054;-59
2021/08/07 11:27:48;;;;;;;2.05;1.40;;;;;;;28.34;36.13;95440.33;1795558;80;21503;-59
2021/08/07 11:30:34;;;;;;;1.27;1.17;;;;;;;28.44;37.38;95442.08;1795627;80;21127;-59
2021/08/07 11:33:14;;;;;;;1.50;1.40;;;;;;;28.59;38.89;95439.80;1794363;80;21022;-59
2021/08/07 11:35:49;;;;;;;1.95;1.32;;;;;;;28.72;36.30;95435.94;1795631;80;21014;-59
2021/08/07 11:38:23;;;;;;;1.70;1.57;;;;;;;28.77;35.03;95448.59;1795621;80;21055;-59
2021/08/07 11:41:00;;;;;;;2.25;1.50;;;;;;;28.68;35.75;95438.09;1795226;80;20991;-59
2021/08/07 11:43:43;;;;;;;1.60;1.37;;;;;;;28.26;36.45;95450.52;1795484;80;20959;-60
2021/08/07 11:46:14;;;;;;;1.47;1.10;;;;;;;27.99;38.62;95452.53;1795638;80;21031;-59
2021/08/07 11:48:48;;;;;;;1.65;1.12;;;;;;;28.23;35.87;95452.17;1795493;80;21058;-59